sensor_id;sensor_type;location;lat;lon;timestamp;pressure;altitude;pressure_sealevel;temperature;humidity
68859;BME280;55864;49.238;8.092;2024-03-22T00:01:47;100108.09;;;12.60;69.06
68859;BME280;55864;49.238;8.092;2024-03-22T00:03:48;100112.66;;;12.39;69.43
68859;BME280;55864;49.238;8.092;2024-03-22T00:05:48;100100.28;;;12.49;69.43
68859;BME280;55864;49.238;8.092;2024-03-22T00:07:49;100106.56;;;12.58;69.62
68859;BME280;55864;49.238;8.092;2024-03-22T00:09:49;100095.03;;;12.59;69.26
68859;BME280;55864;49.238;8.092;2024-03-22T00:11:50;100096.84;;;12.29;69.90
68859;BME280;55864;49.238;8.092;2024-03-22T00:13:50;100096.41;;;12.24;70.10
68859;BME280;55864;49.238;8.092;2024-03-22T00:15:51;100092.28;;;12.41;70.09
68859;BME280;55864;49.238;8.092;2024-03-22T00:17:53;100087.41;;;12.37;70.44
68859;BME280;55864;49.238;8.092;2024-03-22T00:19:53;100082.13;;;12.46;69.65
68859;BME280;55864;49.238;8.092;2024-03-22T00:21:54;100083.25;;;12.44;69.80
68859;BME280;55864;49.238;8.092;2024-03-22T00:23:54;100086.56;;;12.26;69.41
68859;BME280;55864;49.238;8.092;2024-03-22T00:25:55;100085.44;;;12.10;69.63
68859;BME280;55864;49.238;8.092;2024-03-22T00:27:55;100083.91;;;11.98;70.13
68859;BME280;55864;49.238;8.092;2024-03-22T00:29:56;100089.72;;;11.92;69.43
68859;BME280;55864;49.238;8.092;2024-03-22T00:31:56;100085.38;;;11.81;70.71
68859;BME280;55864;49.238;8.092;2024-03-22T00:33:58;100081.50;;;11.85;71.14
68859;BME280;55864;49.238;8.092;2024-03-22T00:35:59;100081.13;;;11.90;70.59
68859;BME280;55864;49.238;8.092;2024-03-22T00:37:59;100078.31;;;11.82;71.64
68859;BME280;55864;49.238;8.092;2024-03-22T00:40:00;100071.28;;;11.92;71.00
68859;BME280;55864;49.238;8.092;2024-03-22T00:42:00;100070.47;;;12.01;71.37
68859;BME280;55864;49.238;8.092;2024-03-22T00:44:01;100073.50;;;12.06;70.22
68859;BME280;55864;49.238;8.092;2024-03-22T00:46:02;100070.19;;;12.04;70.15
68859;BME280;55864;49.238;8.092;2024-03-22T00:48:02;100063.13;;;12.04;70.89
68859;BME280;55864;49.238;8.092;2024-03-22T00:50:06;100054.25;;;12.05;70.56
68859;BME280;55864;49.238;8.092;2024-03-22T00:52:07;100052.72;;;12.03;70.82
68859;BME280;55864;49.238;8.092;2024-03-22T00:54:07;100048.84;;;12.07;71.05
68859;BME280;55864;49.238;8.092;2024-03-22T00:56:08;100047.72;;;12.09;70.42
68859;BME280;55864;49.238;8.092;2024-03-22T00:58:08;100042.22;;;12.12;69.74
68859;BME280;55864;49.238;8.092;2024-03-22T01:00:09;100040.97;;;12.16;70.57
68859;BME280;55864;49.238;8.092;2024-03-22T01:02:10;100035.84;;;12.05;69.62
68859;BME280;55864;49.238;8.092;2024-03-22T01:04:11;100032.75;;;12.00;70.82
68859;BME280;55864;49.238;8.092;2024-03-22T01:06:12;100030.13;;;12.00;71.00
68859;BME280;55864;49.238;8.092;2024-03-22T01:08:13;100031.38;;;12.06;70.28
68859;BME280;55864;49.238;8.092;2024-03-22T01:10:14;100024.16;;;12.08;70.38
68859;BME280;55864;49.238;8.092;2024-03-22T01:12:14;100016.00;;;12.01;70.30
68859;BME280;55864;49.238;8.092;2024-03-22T01:14:15;100018.34;;;12.04;70.40
68859;BME280;55864;49.238;8.092;2024-03-22T01:16:15;100012.25;;;12.04;69.56
68859;BME280;55864;49.238;8.092;2024-03-22T01:18:16;100004.34;;;12.04;69.44
68859;BME280;55864;49.238;8.092;2024-03-22T01:20:16;100003.78;;;12.00;70.22
68859;BME280;55864;49.238;8.092;2024-03-22T01:22:18;100006.16;;;12.03;70.01
68859;BME280;55864;49.238;8.092;2024-03-22T01:24:19;100020.56;;;11.99;69.97
68859;BME280;55864;49.238;8.092;2024-03-22T01:26:19;100015.00;;;11.93;70.01
68859;BME280;55864;49.238;8.092;2024-03-22T01:28:20;100015.16;;;12.01;69.61
68859;BME280;55864;49.238;8.092;2024-03-22T01:30:20;100014.88;;;12.04;70.04
68859;BME280;55864;49.238;8.092;2024-03-22T01:32:21;100011.28;;;11.95;69.34
68859;BME280;55864;49.238;8.092;2024-03-22T01:34:22;100008.50;;;11.97;69.54
68859;BME280;55864;49.238;8.092;2024-03-22T01:36:22;100009.88;;;11.82;70.88
68859;BME280;55864;49.238;8.092;2024-03-22T01:38:24;100003.94;;;11.89;70.81
68859;BME280;55864;49.238;8.092;2024-03-22T01:40:25;99994.50;;;11.96;70.52
68859;BME280;55864;49.238;8.092;2024-03-22T01:42:25;99991.06;;;11.86;71.39
68859;BME280;55864;49.238;8.092;2024-03-22T01:44:31;99993.25;;;11.91;70.33
68859;BME280;55864;49.238;8.092;2024-03-22T01:46:32;99991.06;;;11.86;70.89
68859;BME280;55864;49.238;8.092;2024-03-22T01:48:33;99987.59;;;11.86;70.78
68859;BME280;55864;49.238;8.092;2024-03-22T01:50:33;100001.00;;;11.83;71.33
68859;BME280;55864;49.238;8.092;2024-03-22T01:52:34;99986.59;;;11.87;71.23
68859;BME280;55864;49.238;8.092;2024-03-22T01:54:36;99981.63;;;11.84;71.28
68859;BME280;55864;49.238;8.092;2024-03-22T01:56:37;99983.56;;;11.91;71.27
68859;BME280;55864;49.238;8.092;2024-03-22T01:58:39;99977.91;;;11.96;70.94
68859;BME280;55864;49.238;8.092;2024-03-22T02:00:39;99974.00;;;12.00;70.28
68859;BME280;55864;49.238;8.092;2024-03-22T02:02:40;99978.00;;;11.94;70.54
68859;BME280;55864;49.238;8.092;2024-03-22T02:04:41;99974.28;;;11.87;70.78
68859;BME280;55864;49.238;8.092;2024-03-22T02:06:41;99974.13;;;11.98;70.41
68859;BME280;55864;49.238;8.092;2024-03-22T02:08:42;99969.56;;;12.00;70.39
68859;BME280;55864;49.238;8.092;2024-03-22T02:10:45;99967.06;;;11.89;70.50
68859;BME280;55864;49.238;8.092;2024-03-22T02:12:45;99965.28;;;11.99;70.50
68859;BME280;55864;49.238;8.092;2024-03-22T02:14:46;99963.47;;;12.00;70.71
68859;BME280;55864;49.238;8.092;2024-03-22T02:16:46;99963.88;;;11.86;70.64
68859;BME280;55864;49.238;8.092;2024-03-22T02:18:47;99964.03;;;11.94;70.44
68859;BME280;55864;49.238;8.092;2024-03-22T02:20:47;99962.66;;;11.90;70.45
68859;BME280;55864;49.238;8.092;2024-03-22T02:22:48;99962.91;;;11.96;70.41
68859;BME280;55864;49.238;8.092;2024-03-22T02:24:50;99962.91;;;11.96;69.95
68859;BME280;55864;49.238;8.092;2024-03-22T02:26:51;99960.72;;;11.92;69.84
68859;BME280;55864;49.238;8.092;2024-03-22T02:28:51;99963.47;;;11.81;69.94
68859;BME280;55864;49.238;8.092;2024-03-22T02:30:52;99961.81;;;11.89;70.06
68859;BME280;55864;49.238;8.092;2024-03-22T02:32:52;99967.22;;;11.88;69.94
68859;BME280;55864;49.238;8.092;2024-03-22T02:34:53;99960.84;;;11.90;70.00
68859;BME280;55864;49.238;8.092;2024-03-22T02:36:53;99957.63;;;11.87;70.45
68859;BME280;55864;49.238;8.092;2024-03-22T02:38:54;99963.50;;;11.90;70.07
68859;BME280;55864;49.238;8.092;2024-03-22T02:40:57;99964.72;;;11.86;69.97
68859;BME280;55864;49.238;8.092;2024-03-22T02:42:58;99963.03;;;11.76;70.18
68859;BME280;55864;49.238;8.092;2024-03-22T02:44:59;99964.84;;;11.66;70.57
68859;BME280;55864;49.238;8.092;2024-03-22T02:46:59;99968.16;;;11.68;71.02
68859;BME280;55864;49.238;8.092;2024-03-22T02:49:00;99956.28;;;11.73;70.89
68859;BME280;55864;49.238;8.092;2024-03-22T02:51:00;99951.66;;;11.75;70.90
68859;BME280;55864;49.238;8.092;2024-03-22T02:53:01;99950.16;;;11.73;70.67
68859;BME280;55864;49.238;8.092;2024-03-22T02:55:02;99947.09;;;11.77;71.55
68859;BME280;55864;49.238;8.092;2024-03-22T02:57:04;99942.38;;;11.62;70.51
68859;BME280;55864;49.238;8.092;2024-03-22T02:59:04;99941.53;;;11.52;70.44
68859;BME280;55864;49.238;8.092;2024-03-22T03:01:05;99934.31;;;11.44;70.96
68859;BME280;55864;49.238;8.092;2024-03-22T03:03:06;99934.28;;;11.34;71.41
68859;BME280;55864;49.238;8.092;2024-03-22T03:05:07;99928.63;;;11.29;71.60
68859;BME280;55864;49.238;8.092;2024-03-22T03:07:08;99926.69;;;11.51;76.00
68859;BME280;55864;49.238;8.092;2024-03-22T03:09:08;99931.09;;;12.46;71.64
68859;BME280;55864;49.238;8.092;2024-03-22T03:11:09;99927.72;;;11.88;70.35
68859;BME280;55864;49.238;8.092;2024-03-22T03:13:11;99926.34;;;11.74;70.59
68859;BME280;55864;49.238;8.092;2024-03-22T03:15:11;99928.47;;;11.31;71.58
68859;BME280;55864;49.238;8.092;2024-03-22T03:17:12;99925.16;;;11.38;72.08
68859;BME280;55864;49.238;8.092;2024-03-22T03:19:12;99920.38;;;11.13;72.44
68859;BME280;55864;49.238;8.092;2024-03-22T03:21:13;99925.41;;;11.16;73.35
68859;BME280;55864;49.238;8.092;2024-03-22T03:23:13;99922.97;;;10.94;74.67
68859;BME280;55864;49.238;8.092;2024-03-22T03:25:14;99932.50;;;10.56;75.47
68859;BME280;55864;49.238;8.092;2024-03-22T03:27:14;99935.38;;;10.83;75.04
68859;BME280;55864;49.238;8.092;2024-03-22T03:29:16;99932.00;;;11.11;74.24
68859;BME280;55864;49.238;8.092;2024-03-22T03:31:17;99931.06;;;11.21;72.95
68859;BME280;55864;49.238;8.092;2024-03-22T03:33:18;99930.00;;;11.43;72.27
68859;BME280;55864;49.238;8.092;2024-03-22T03:35:18;99929.06;;;11.54;72.03
68859;BME280;55864;49.238;8.092;2024-03-22T03:37:19;99932.94;;;11.59;71.51
68859;BME280;55864;49.238;8.092;2024-03-22T03:39:19;99928.97;;;11.74;71.32
68859;BME280;55864;49.238;8.092;2024-03-22T03:41:20;99925.25;;;11.67;71.40
68859;BME280;55864;49.238;8.092;2024-03-22T03:43:20;99927.41;;;11.62;71.94
68859;BME280;55864;49.238;8.092;2024-03-22T03:45:22;99927.88;;;11.67;71.63
68859;BME280;55864;49.238;8.092;2024-03-22T03:47:23;99931.56;;;11.65;71.58
68859;BME280;55864;49.238;8.092;2024-03-22T03:49:23;99923.25;;;11.50;72.01
68859;BME280;55864;49.238;8.092;2024-03-22T03:51:24;99918.69;;;11.52;72.33
68859;BME280;55864;49.238;8.092;2024-03-22T03:53:24;99911.19;;;11.48;71.75
68859;BME280;55864;49.238;8.092;2024-03-22T03:55:28;99913.72;;;11.68;71.53
68859;BME280;55864;49.238;8.092;2024-03-22T03:57:29;99906.38;;;11.81;70.80
68859;BME280;55864;49.238;8.092;2024-03-22T03:59:29;99909.16;;;11.89;70.80
68859;BME280;55864;49.238;8.092;2024-03-22T04:01:31;99913.88;;;11.86;70.62
68859;BME280;55864;49.238;8.092;2024-03-22T04:03:32;99898.38;;;11.73;71.66
68859;BME280;55864;49.238;8.092;2024-03-22T04:05:32;99901.25;;;11.80;71.05
68859;BME280;55864;49.238;8.092;2024-03-22T04:07:33;99900.56;;;11.78;70.72
68859;BME280;55864;49.238;8.092;2024-03-22T04:09:33;99909.31;;;11.78;71.16
68859;BME280;55864;49.238;8.092;2024-03-22T04:11:34;99898.34;;;11.83;70.83
68859;BME280;55864;49.238;8.092;2024-03-22T04:13:34;99900.31;;;11.81;70.87
68859;BME280;55864;49.238;8.092;2024-03-22T04:15:35;99906.66;;;11.78;71.15
68859;BME280;55864;49.238;8.092;2024-03-22T04:17:37;99902.78;;;11.73;71.88
68859;BME280;55864;49.238;8.092;2024-03-22T04:19:37;99900.56;;;11.78;71.63
68859;BME280;55864;49.238;8.092;2024-03-22T04:21:38;99904.75;;;11.80;71.27
68859;BME280;55864;49.238;8.092;2024-03-22T04:23:38;99900.84;;;11.84;71.31
68859;BME280;55864;49.238;8.092;2024-03-22T04:25:51;99900.56;;;11.78;71.59
68859;BME280;55864;49.238;8.092;2024-03-22T04:27:51;99899.47;;;11.71;71.95
68859;BME280;55864;49.238;8.092;2024-03-22T04:29:52;99896.97;;;11.69;71.93
68859;BME280;55864;49.238;8.092;2024-03-22T04:31:52;99896.00;;;11.80;71.45
68859;BME280;55864;49.238;8.092;2024-03-22T04:33:54;99891.44;;;11.72;71.38
68859;BME280;55864;49.238;8.092;2024-03-22T04:35:55;99896.28;;;11.77;71.60
68859;BME280;55864;49.238;8.092;2024-03-22T04:37:56;99886.16;;;11.82;70.94
68859;BME280;55864;49.238;8.092;2024-03-22T04:39:56;99882.28;;;11.76;71.04
68859;BME280;55864;49.238;8.092;2024-03-22T04:41:57;99895.72;;;11.64;72.21
68859;BME280;55864;49.238;8.092;2024-03-22T04:43:57;99889.06;;;11.60;71.97
68859;BME280;55864;49.238;8.092;2024-03-22T04:45:58;99894.91;;;11.73;70.80
68859;BME280;55864;49.238;8.092;2024-03-22T04:47:59;99890.75;;;11.70;71.15
68859;BME280;55864;49.238;8.092;2024-03-22T04:50:01;99893.66;;;11.67;71.05
68859;BME280;55864;49.238;8.092;2024-03-22T04:52:02;99893.88;;;11.64;71.23
68859;BME280;55864;49.238;8.092;2024-03-22T04:54:02;99884.59;;;11.60;71.46
68859;BME280;55864;49.238;8.092;2024-03-22T04:56:04;99877.28;;;11.64;71.32
68859;BME280;55864;49.238;8.092;2024-03-22T04:58:04;99878.38;;;11.61;71.65
68859;BME280;55864;49.238;8.092;2024-03-22T05:00:06;99876.44;;;11.63;71.29
68859;BME280;55864;49.238;8.092;2024-03-22T05:02:07;99875.91;;;11.50;72.27
68859;BME280;55864;49.238;8.092;2024-03-22T05:04:07;99876.44;;;11.63;71.81
68859;BME280;55864;49.238;8.092;2024-03-22T05:06:09;99872.84;;;11.55;72.16
68859;BME280;55864;49.238;8.092;2024-03-22T05:08:10;99872.03;;;11.54;72.48
68859;BME280;55864;49.238;8.092;2024-03-22T05:10:11;99878.69;;;11.58;72.05
68859;BME280;55864;49.238;8.092;2024-03-22T05:12:12;99876.03;;;11.58;72.16
68859;BME280;55864;49.238;8.092;2024-03-22T05:14:12;99879.81;;;11.65;72.09
68859;BME280;55864;49.238;8.092;2024-03-22T05:16:13;99871.72;;;11.57;71.90
68859;BME280;55864;49.238;8.092;2024-03-22T05:18:13;99870.88;;;11.47;72.58
68859;BME280;55864;49.238;8.092;2024-03-22T05:20:14;99869.50;;;11.43;72.49
68859;BME280;55864;49.238;8.092;2024-03-22T05:22:16;99874.63;;;11.35;72.51
68859;BME280;55864;49.238;8.092;2024-03-22T05:24:16;99879.75;;;11.36;73.03
68859;BME280;55864;49.238;8.092;2024-03-22T05:26:17;99861.03;;;11.30;73.42
68859;BME280;55864;49.238;8.092;2024-03-22T05:28:17;99860.50;;;11.36;73.25
68859;BME280;55864;49.238;8.092;2024-03-22T05:30:18;99865.38;;;11.41;73.31
68859;BME280;55864;49.238;8.092;2024-03-22T05:32:19;99861.19;;;11.38;74.12
68859;BME280;55864;49.238;8.092;2024-03-22T05:34:19;99862.88;;;11.39;73.40
68859;BME280;55864;49.238;8.092;2024-03-22T05:36:20;99855.25;;;11.36;74.33
68859;BME280;55864;49.238;8.092;2024-03-22T05:38:22;99863.44;;;11.52;73.14
68859;BME280;55864;49.238;8.092;2024-03-22T05:40:22;99866.19;;;11.60;72.51
68859;BME280;55864;49.238;8.092;2024-03-22T05:42:23;99859.41;;;11.58;72.68
68859;BME280;55864;49.238;8.092;2024-03-22T05:44:23;99854.69;;;11.61;72.38
68859;BME280;55864;49.238;8.092;2024-03-22T05:46:24;99865.09;;;11.53;72.88
68859;BME280;55864;49.238;8.092;2024-03-22T05:48:25;99862.75;;;11.50;73.02
68859;BME280;55864;49.238;8.092;2024-03-22T05:50:25;99866.31;;;11.39;74.44
68859;BME280;55864;49.238;8.092;2024-03-22T05:52:26;99859.41;;;11.38;73.92
68859;BME280;55864;49.238;8.092;2024-03-22T05:54:28;99860.66;;;11.54;73.13
68859;BME280;55864;49.238;8.092;2024-03-22T05:56:29;99867.16;;;11.59;73.19
68859;BME280;55864;49.238;8.092;2024-03-22T05:58:29;99867.03;;;11.61;73.12
68859;BME280;55864;49.238;8.092;2024-03-22T06:00:30;99860.13;;;11.60;73.41
68859;BME280;55864;49.238;8.092;2024-03-22T06:02:30;99861.38;;;11.65;74.25
68859;BME280;55864;49.238;8.092;2024-03-22T06:04:31;99856.66;;;11.69;74.44
68859;BME280;55864;49.238;8.092;2024-03-22T06:06:32;99852.50;;;11.66;74.06
68859;BME280;55864;49.238;8.092;2024-03-22T06:08:32;99847.78;;;11.79;74.44
68859;BME280;55864;49.238;8.092;2024-03-22T06:10:34;99844.34;;;11.79;74.09
68859;BME280;55864;49.238;8.092;2024-03-22T06:12:35;99841.81;;;11.77;74.54
68859;BME280;55864;49.238;8.092;2024-03-22T06:14:36;99841.69;;;11.88;74.66
68859;BME280;55864;49.238;8.092;2024-03-22T06:16:36;99845.59;;;11.65;75.93
68859;BME280;55864;49.238;8.092;2024-03-22T06:18:37;99838.38;;;11.77;75.26
68859;BME280;55864;49.238;8.092;2024-03-22T06:20:37;99830.47;;;11.86;74.98
68859;BME280;55864;49.238;8.092;2024-03-22T06:22:38;99840.59;;;10.65;79.32
68859;BME280;55864;49.238;8.092;2024-03-22T06:24:38;99836.13;;;10.05;83.29
68859;BME280;55864;49.238;8.092;2024-03-22T06:26:43;99839.53;;;9.76;85.44
68859;BME280;55864;49.238;8.092;2024-03-22T06:28:44;99844.44;;;9.69;87.63
68859;BME280;55864;49.238;8.092;2024-03-22T06:30:44;99836.91;;;9.55;88.53
68859;BME280;55864;49.238;8.092;2024-03-22T06:32:45;99835.28;;;9.84;88.62
68859;BME280;55864;49.238;8.092;2024-03-22T06:34:46;99837.16;;;9.93;88.78
68859;BME280;55864;49.238;8.092;2024-03-22T06:36:46;99829.69;;;10.09;87.82
68859;BME280;55864;49.238;8.092;2024-03-22T06:38:47;99829.53;;;9.90;88.85
68859;BME280;55864;49.238;8.092;2024-03-22T06:40:47;99826.13;;;9.99;88.77
68859;BME280;55864;49.238;8.092;2024-03-22T06:42:49;99819.63;;;10.14;89.57
68859;BME280;55864;49.238;8.092;2024-03-22T06:44:50;99822.59;;;10.30;87.43
68859;BME280;55864;49.238;8.092;2024-03-22T06:46:50;99816.66;;;10.28;87.95
68859;BME280;55864;49.238;8.092;2024-03-22T06:48:51;99812.00;;;10.81;85.97
68859;BME280;55864;49.238;8.092;2024-03-22T06:50:52;99814.09;;;10.87;85.98
68859;BME280;55864;49.238;8.092;2024-03-22T06:52:52;99813.72;;;11.30;82.95
68859;BME280;55864;49.238;8.092;2024-03-22T06:54:53;99814.25;;;11.43;82.79
68859;BME280;55864;49.238;8.092;2024-03-22T06:56:56;99807.06;;;11.45;83.53
68859;BME280;55864;49.238;8.092;2024-03-22T06:58:59;99806.38;;;11.72;81.99
68859;BME280;55864;49.238;8.092;2024-03-22T07:00:59;99804.88;;;11.31;83.55
68859;BME280;55864;49.238;8.092;2024-03-22T07:03:02;99810.97;;;11.22;82.92
68859;BME280;55864;49.238;8.092;2024-03-22T07:05:03;99798.06;;;11.28;83.65
68859;BME280;55864;49.238;8.092;2024-03-22T07:07:04;99800.84;;;11.17;83.40
68859;BME280;55864;49.238;8.092;2024-03-22T07:09:05;99797.53;;;11.44;82.16
68859;BME280;55864;49.238;8.092;2024-03-22T07:11:05;99797.94;;;11.49;81.36
68859;BME280;55864;49.238;8.092;2024-03-22T07:13:06;99795.44;;;11.57;81.45
68859;BME280;55864;49.238;8.092;2024-03-22T07:15:09;99800.28;;;11.62;80.88
68859;BME280;55864;49.238;8.092;2024-03-22T07:17:09;99798.38;;;11.73;80.04
68859;BME280;55864;49.238;8.092;2024-03-22T07:19:10;99784.69;;;12.06;78.78
68859;BME280;55864;49.238;8.092;2024-03-22T07:21:10;99783.25;;;12.21;77.72
68859;BME280;55864;49.238;8.092;2024-03-22T07:23:11;99787.59;;;12.40;76.72
68859;BME280;55864;49.238;8.092;2024-03-22T07:25:11;99793.31;;;12.36;75.62
68859;BME280;55864;49.238;8.092;2024-03-22T07:27:13;99781.50;;;12.67;74.68
68859;BME280;55864;49.238;8.092;2024-03-22T07:29:14;99786.69;;;12.59;74.59
68859;BME280;55864;49.238;8.092;2024-03-22T07:31:16;99786.84;;;12.57;74.86
68859;BME280;55864;49.238;8.092;2024-03-22T07:33:17;99785.34;;;12.72;73.39
68859;BME280;55864;49.238;8.092;2024-03-22T07:35:17;99789.03;;;12.62;73.52
68859;BME280;55864;49.238;8.092;2024-03-22T07:37:17;99782.13;;;12.78;72.84
68859;BME280;55864;49.238;8.092;2024-03-22T07:39:18;99783.72;;;12.89;72.57
68859;BME280;55864;49.238;8.092;2024-03-22T07:41:19;99772.72;;;12.76;72.57
68859;BME280;55864;49.238;8.092;2024-03-22T07:43:19;99780.72;;;12.84;72.37
68859;BME280;55864;49.238;8.092;2024-03-22T07:45:20;99776.97;;;12.86;71.90
68859;BME280;55864;49.238;8.092;2024-03-22T07:47:21;99773.91;;;12.81;72.92
68859;BME280;55864;49.238;8.092;2024-03-22T07:49:22;99772.31;;;12.98;72.62
68859;BME280;55864;49.238;8.092;2024-03-22T07:51:22;99777.84;;;12.77;72.91
68859;BME280;55864;49.238;8.092;2024-03-22T07:53:23;99772.06;;;12.91;71.58
68859;BME280;55864;49.238;8.092;2024-03-22T07:55:23;99771.81;;;12.67;72.96
68859;BME280;55864;49.238;8.092;2024-03-22T07:57:24;99775.66;;;12.73;73.15
68859;BME280;55864;49.238;8.092;2024-03-22T07:59:24;99779.13;;;12.73;72.73
68859;BME280;55864;49.238;8.092;2024-03-22T08:01:25;99776.28;;;12.84;73.15
68859;BME280;55864;49.238;8.092;2024-03-22T08:03:27;99772.69;;;12.58;73.48
68859;BME280;55864;49.238;8.092;2024-03-22T08:05:27;99772.91;;;12.65;72.95
68859;BME280;55864;49.238;8.092;2024-03-22T08:07:28;99773.59;;;12.67;72.56
68859;BME280;55864;49.238;8.092;2024-03-22T08:09:28;99779.97;;;12.91;72.96
68859;BME280;55864;49.238;8.092;2024-03-22T08:11:29;99782.97;;;12.79;72.22
68859;BME280;55864;49.238;8.092;2024-03-22T08:13:29;99785.03;;;12.58;73.23
68859;BME280;55864;49.238;8.092;2024-03-22T08:15:30;99780.06;;;12.55;73.16
68859;BME280;55864;49.238;8.092;2024-03-22T08:17:30;99782.81;;;12.53;72.51
68859;BME280;55864;49.238;8.092;2024-03-22T08:19:32;99783.34;;;12.57;73.12
68859;BME280;55864;49.238;8.092;2024-03-22T08:21:32;99771.84;;;12.58;73.30
68859;BME280;55864;49.238;8.092;2024-03-22T08:23:33;99777.22;;;12.66;73.04
68859;BME280;55864;49.238;8.092;2024-03-22T08:25:33;99773.44;;;12.51;74.10
68859;BME280;55864;49.238;8.092;2024-03-22T08:27:34;99778.00;;;12.49;74.17
68859;BME280;55864;49.238;8.092;2024-03-22T08:29:34;99769.81;;;12.52;73.21
68859;BME280;55864;49.238;8.092;2024-03-22T08:31:35;99777.97;;;12.58;73.05
68859;BME280;55864;49.238;8.092;2024-03-22T08:33:35;99764.91;;;12.57;73.02
68859;BME280;55864;49.238;8.092;2024-03-22T08:35:37;99762.69;;;12.62;72.83
68859;BME280;55864;49.238;8.092;2024-03-22T08:37:38;99766.69;;;12.66;72.22
68859;BME280;55864;49.238;8.092;2024-03-22T08:39:39;99760.69;;;12.73;71.94
68859;BME280;55864;49.238;8.092;2024-03-22T08:41:39;99764.84;;;12.66;71.89
68859;BME280;55864;49.238;8.092;2024-03-22T08:43:40;99762.69;;;12.62;72.43
68859;BME280;55864;49.238;8.092;2024-03-22T08:45:40;99762.38;;;12.65;72.93
68859;BME280;55864;49.238;8.092;2024-03-22T08:47:41;99764.13;;;12.74;71.51
68859;BME280;55864;49.238;8.092;2024-03-22T08:49:41;99760.25;;;12.68;71.70
68859;BME280;55864;49.238;8.092;2024-03-22T08:51:43;99750.81;;;12.75;71.19
68859;BME280;55864;49.238;8.092;2024-03-22T08:53:43;99763.16;;;12.75;71.40
68859;BME280;55864;49.238;8.092;2024-03-22T08:55:47;99762.34;;;12.92;70.85
68859;BME280;55864;49.238;8.092;2024-03-22T08:57:48;99758.25;;;12.80;70.89
68859;BME280;55864;49.238;8.092;2024-03-22T08:59:48;99752.91;;;12.89;70.48
68859;BME280;55864;49.238;8.092;2024-03-22T09:01:49;99757.84;;;13.02;69.38
68859;BME280;55864;49.238;8.092;2024-03-22T09:03:50;99760.25;;;12.95;70.10
68859;BME280;55864;49.238;8.092;2024-03-22T09:05:52;99759.94;;;12.81;70.27
68859;BME280;55864;49.238;8.092;2024-03-22T09:07:54;99755.34;;;12.83;70.67
68859;BME280;55864;49.238;8.092;2024-03-22T09:09:54;99756.97;;;12.84;71.33
68859;BME280;55864;49.238;8.092;2024-03-22T09:11:55;99763.19;;;12.92;70.88
68859;BME280;55864;49.238;8.092;2024-03-22T09:13:55;99749.13;;;13.19;69.61
68859;BME280;55864;49.238;8.092;2024-03-22T09:15:57;99760.28;;;13.13;70.72
68859;BME280;55864;49.238;8.092;2024-03-22T09:17:57;99756.16;;;13.01;70.32
68859;BME280;55864;49.238;8.092;2024-03-22T09:19:57;99746.50;;;13.19;69.92
68859;BME280;55864;49.238;8.092;2024-03-22T09:21:58;99746.41;;;13.11;70.25
68859;BME280;55864;49.238;8.092;2024-03-22T09:24:00;99746.94;;;13.14;70.42
68859;BME280;55864;49.238;8.092;2024-03-22T09:26:00;99737.88;;;13.35;70.00
68859;BME280;55864;49.238;8.092;2024-03-22T09:28:01;99733.88;;;13.31;70.33
68859;BME280;55864;49.238;8.092;2024-03-22T09:30:01;99737.78;;;13.44;69.22
68859;BME280;55864;49.238;8.092;2024-03-22T09:32:03;99728.94;;;13.53;69.52
68859;BME280;55864;49.238;8.092;2024-03-22T09:34:04;99725.69;;;13.59;68.77
68859;BME280;55864;49.238;8.092;2024-03-22T09:36:05;99721.06;;;13.61;69.30
68859;BME280;55864;49.238;8.092;2024-03-22T09:38:05;99718.38;;;13.53;69.55
68859;BME280;55864;49.238;8.092;2024-03-22T09:40:08;99713.78;;;13.55;69.21
68859;BME280;55864;49.238;8.092;2024-03-22T09:42:13;99710.06;;;13.66;69.33
68859;BME280;55864;49.238;8.092;2024-03-22T09:44:18;99704.34;;;13.78;68.85
68859;BME280;55864;49.238;8.092;2024-03-22T09:46:19;99709.28;;;14.07;67.40
68859;BME280;55864;49.238;8.092;2024-03-22T09:48:19;99700.75;;;13.87;68.77
68859;BME280;55864;49.238;8.092;2024-03-22T09:50:20;99700.03;;;14.03;67.93
68859;BME280;55864;49.238;8.092;2024-03-22T09:52:22;99699.06;;;14.38;67.27
68859;BME280;55864;49.238;8.092;2024-03-22T09:54:23;99693.44;;;14.41;66.38
68859;BME280;55864;49.238;8.092;2024-03-22T09:56:27;99693.41;;;14.33;66.90
68859;BME280;55864;49.238;8.092;2024-03-22T09:58:29;99693.78;;;14.46;66.04
68859;BME280;55864;49.238;8.092;2024-03-22T10:00:30;99694.47;;;14.56;65.83
68859;BME280;55864;49.238;8.092;2024-03-22T10:02:32;99683.53;;;14.43;66.09
68859;BME280;55864;49.238;8.092;2024-03-22T10:04:33;99685.72;;;14.55;66.17
68859;BME280;55864;49.238;8.092;2024-03-22T10:06:34;99688.38;;;14.63;66.01
68859;BME280;55864;49.238;8.092;2024-03-22T10:08:34;99685.28;;;14.92;64.72
68859;BME280;55864;49.238;8.092;2024-03-22T10:10:35;99676.84;;;14.96;64.60
68859;BME280;55864;49.238;8.092;2024-03-22T10:12:37;99672.53;;;14.95;64.99
68859;BME280;55864;49.238;8.092;2024-03-22T10:14:37;99676.19;;;15.02;66.14
68859;BME280;55864;49.238;8.092;2024-03-22T10:16:38;99675.34;;;15.18;64.36
68859;BME280;55864;49.238;8.092;2024-03-22T10:18:39;99672.69;;;14.86;65.17
68859;BME280;55864;49.238;8.092;2024-03-22T10:20:41;99665.56;;;14.62;65.13
68859;BME280;55864;49.238;8.092;2024-03-22T10:22:42;99667.41;;;14.94;64.98
68859;BME280;55864;49.238;8.092;2024-03-22T10:24:42;99655.69;;;14.96;64.53
68859;BME280;55864;49.238;8.092;2024-03-22T10:26:43;99654.53;;;15.07;63.91
68859;BME280;55864;49.238;8.092;2024-03-22T10:28:46;99646.25;;;15.02;64.39
68859;BME280;55864;49.238;8.092;2024-03-22T10:30:50;99648.88;;;14.86;64.53
68859;BME280;55864;49.238;8.092;2024-03-22T10:32:50;99654.00;;;14.63;63.32
68859;BME280;55864;49.238;8.092;2024-03-22T10:34:52;99653.69;;;14.66;64.92
68859;BME280;55864;49.238;8.092;2024-03-22T10:36:55;99653.38;;;14.85;64.03
68859;BME280;55864;49.238;8.092;2024-03-22T10:38:56;99646.56;;;14.59;65.07
68859;BME280;55864;49.238;8.092;2024-03-22T10:40:57;99649.88;;;14.77;64.66